ESTL weather

Ljungbyhed Airport
Ljungbyhed, Skåne län, Sweden

Public forecast

Using degrees Celsius for public forecast. Weather courtesy of forecast.io.

METAR (pilot weather report)

Retrieved 2019/07/21 08:20 UTC (15 minutes ago):

ESTL 210820Z AUTO 22006KT 9999 ///////// 20/16 Q1012

TAF (pilot weather forecast)

Forecast is more than 12 hours old.

Retrieved 2016/03/01 09:33 UTC (3 years ago):

TAF ESTL 010830Z 0109/0124 14004KT 9999 SCT025